Latest Weather Observations for Hervey Bay

IDQ60801

Issued at 7:35 pm EST Thursday 17 April 2014 (issued every 30 minutes, with the page automatically refreshed every 10 minutes)

About weather observations | Map of weather stations | Latest weather observations for QLD | Other Formats
Station Details ID: 040405 Name: HERVEY BAY AIRPORT Lat: -25.32 Lon: 152.88 Height: 12.98 m
Data from the previous 72 hours. | See also: Recent months at Hervey Bay
Date/Time
EST
Temp
°C
App
Temp
°C
Dew
Point
Rel
Hum
%
Delta-T
°C
Wind Press
QNH
hPa
Press
MSL
hPa
Rain
since 9 am
mm
Dir
 
Spd
km/h
Gust
km/h
Spd
kts
Gust
kts
17/07:30pm 22.7 24.5 17.4 72 3.3 ESE 4 7 2 4 1016.9 - 0.0
17/07:00pm 22.9 23.5 16.9 69 3.7 ENE 9 13 5 7 1016.3 - 0.0
17/06:30pm 23.3 23.3 17.1 68 3.8 E 13 19 7 10 1016.0 - 0.0
17/06:00pm 23.2 23.6 17.2 69 3.7 E 11 15 6 8 1015.6 1015.5 0.0
17/05:30pm 23.5 23.9 17.3 68 3.8 E 11 15 6 8 1015.7 - 0.0
17/05:00pm 24.5 25.6 18.0 67 4.1 NE 9 13 5 7 1015.5 - 0.0
17/04:30pm 24.7 24.8 17.4 64 4.5 ENE 13 20 7 11 1015.0 - 0.0
17/04:00pm 25.2 25.1 16.9 60 5.1 E 13 15 7 8 1014.6 - 0.0
17/03:30pm 25.3 25.5 16.7 59 5.3 E 11 15 6 8 1014.6 - 0.0
17/03:00pm 25.5 25.1 17.2 60 5.2 E 15 20 8 11 1014.4 1014.3 0.0
17/02:30pm 26.9 26.9 17.1 55 6.1 ENE 13 20 7 11 1014.6 - 0.0
17/02:00pm 26.4 25.6 16.0 52 6.4 ENE 15 20 8 11 1014.7 - 0.0
17/01:30pm 26.3 25.9 16.3 54 6.2 ENE 13 19 7 10 1015.1 - 0.0
17/01:00pm 26.4 25.9 16.9 56 5.9 E 15 20 8 11 1015.6 - 0.0
17/12:30pm 25.1 25.4 16.0 57 5.5 N 9 17 5 9 1016.0 - 0.0
17/12:00pm 26.4 27.1 16.0 52 6.4 SSW 7 15 4 8 1016.4 1016.3 0.0
17/11:30am 25.9 25.7 15.6 53 6.3 E 11 19 6 10 1016.9 - 0.0
17/11:00am 25.0 25.4 16.2 58 5.4 SSW 9 13 5 7 1017.6 - 0.0
17/10:30am 25.0 25.8 16.4 59 5.3 SSE 7 13 4 7 1017.9 - 0.0
17/10:00am 25.1 25.4 17.0 60 5.0 SW 11 15 6 8 1018.0 - 0.0
17/09:30am 24.2 24.3 17.4 65 4.2 SSW 13 19 7 10 1018.1 - 0.0
17/09:00am 24.0 24.0 17.3 66 4.1 S 13 17 7 9 1018.0 1017.9 0.0
17/08:30am 23.1 23.5 17.3 70 3.6 S 11 20 6 11 1018.0 - 0.0
17/08:00am 21.9 22.4 17.5 76 2.7 S 11 19 6 10 1017.9 - 0.0
17/07:30am 19.8 20.2 17.2 85 1.6 S 11 13 6 7 1017.8 - 0.0
17/07:00am 18.5 19.1 16.7 89 1.1 SSW 9 15 5 8 1017.6 - 0.0
17/06:30am 17.7 17.8 16.6 93 0.7 SSW 11 13 6 7 1017.2 - 0.0
17/06:00am 17.5 17.6 16.5 94 0.6 SSW 11 11 6 6 1016.9 1016.8 0.0
17/05:30am 17.5 18.4 16.5 94 0.6 SW 7 9 4 5 1016.6 - 0.0
17/05:00am 17.5 18.0 16.5 94 0.6 SSW 9 11 5 6 1016.4 - 0.0
17/04:30am 17.5 18.3 16.4 93 0.7 SW 7 7 4 4 1016.3 - 0.0
17/04:00am 17.9 18.9 16.9 94 0.6 SW 7 9 4 5 1016.1 - 0.0
17/03:30am 18.2 19.3 17.2 94 0.6 SW 7 11 4 6 1015.9 - 0.0
17/03:00am 18.2 20.6 17.0 93 0.7 CALM 0 0 0 0 1015.9 1015.8 0.0
17/02:30am 18.4 19.6 17.4 94 0.6 SSW 7 9 4 5 1015.9 - 0.0
17/02:00am 18.3 19.7 17.3 94 0.6 WSW 6 7 3 4 1016.0 - 0.0
17/01:30am 17.7 19.2 16.6 93 0.7 WSW 4 7 2 4 1016.2 - 0.0
17/01:00am 17.7 18.8 16.6 93 0.7 WSW 6 7 3 4 1016.4 - 0.0
17/12:30am 17.6 19.7 16.3 92 0.8 CALM 0 0 0 0 1016.5 - 0.0
17/12:00am 18.1 19.1 16.9 93 0.7 SSW 7 9 4 5 1016.5 1016.4 0.0
 
Date/Time
EST
Temp
°C
App
Temp
°C
Dew
Point
Rel
Hum
%
Delta-T
°C
Wind Press
QNH
hPa
Press
MSL
hPa
Rain
since 9 am
mm
Dir
 
Spd
km/h
Gust
km/h
Spd
kts
Gust
kts
16/11:30pm 18.2 20.6 16.9 92 0.8 CALM 0 0 0 0 1016.4 - 0.0
16/11:00pm 18.6 21.0 16.9 90 1.0 CALM 0 0 0 0 1016.3 - 0.0
16/10:30pm 19.1 21.5 17.1 88 1.2 CALM 0 0 0 0 1016.4 - 0.0
16/10:00pm 20.0 22.6 17.6 86 1.5 CALM 0 6 0 3 1016.6 - 0.0
16/09:30pm 20.4 21.8 17.8 85 1.6 WNW 7 9 4 5 1016.7 - 0.0
16/09:00pm 20.8 22.1 17.6 82 2.0 S 7 11 4 6 1016.4 1016.3 0.0
16/08:30pm 20.5 22.1 17.9 85 1.6 S 6 9 3 5 1016.1 - 0.0
16/08:00pm 21.4 24.0 17.6 79 2.3 CALM 0 4 0 2 1015.9 - 0.0
16/07:30pm 21.9 24.4 17.3 75 2.8 CALM 0 0 0 0 1015.6 - 0.0
16/07:00pm 22.9 23.5 16.7 68 3.8 SE 9 13 5 7 1015.2 - 0.0
16/06:30pm 22.7 22.9 16.7 69 3.7 ESE 11 15 6 8 1014.8 - 0.0
16/06:00pm 22.7 22.8 16.5 68 3.8 ESE 11 13 6 7 1014.3 1014.2 0.0
16/05:30pm 23.0 22.3 16.3 66 4.1 ESE 15 22 8 12 1013.9 - 0.0
16/05:00pm 23.4 21.7 15.7 62 4.6 ESE 19 28 10 15 1013.5 - 0.0
16/04:30pm 24.8 23.0 16.0 58 5.4 E 20 26 11 14 1013.2 - 0.0
16/04:00pm 25.3 23.6 16.2 57 5.6 E 20 24 11 13 1013.1 - 0.0
16/03:30pm 26.9 26.2 15.3 49 7.0 ESE 13 17 7 9 1012.8 - 0.0
16/03:00pm 26.7 25.7 14.5 47 7.3 SE 13 19 7 10 1013.1 1013.0 0.0
16/02:30pm 27.1 25.9 14.1 44 7.8 ESE 13 22 7 12 1013.3 - 0.0
16/02:00pm 27.1 25.7 14.5 46 7.6 ESE 15 22 8 12 1013.5 - 0.0
16/01:30pm 26.6 24.2 13.7 45 7.6 SE 19 24 10 13 1013.7 - 0.0
16/01:00pm 26.7 25.5 14.1 46 7.5 S 13 19 7 10 1014.0 - 0.0
16/12:30pm 26.5 27.0 15.5 50 6.7 SSW 7 19 4 10 1014.4 - 0.0
16/12:00pm 25.7 24.6 13.2 46 7.3 S 11 20 6 11 1015.0 1014.9 0.0
16/11:30am 25.6 23.6 11.4 41 8.0 S 13 20 7 11 1015.3 - 0.0
16/11:00am 24.5 22.8 13.7 51 6.3 SSW 15 20 8 11 1015.9 - 0.0
16/10:30am 24.2 22.8 14.6 55 5.7 S 15 22 8 12 1016.4 - 0.0
16/10:00am 23.6 21.9 14.6 57 5.3 SSW 17 26 9 14 1016.8 - 0.0
16/09:30am 23.3 21.7 15.1 60 4.9 SSW 17 20 9 11 1016.9 - 0.0
16/09:00am 22.4 21.1 14.8 62 4.5 SSW 15 20 8 11 1016.8 1016.7 0.0
16/08:30am 21.2 20.1 15.3 69 3.5 SSW 15 19 8 10 1016.8 - 0.0
16/08:00am 19.9 19.6 15.5 76 2.6 SSW 11 17 6 9 1016.7 - 0.0
16/07:30am 18.5 17.7 15.2 81 1.9 SSW 13 17 7 9 1016.5 - 0.0
16/07:00am 17.4 17.5 15.4 88 1.2 SSW 9 13 5 7 1016.1 - 0.0
16/06:30am 16.3 16.7 15.3 94 0.6 SW 7 11 4 6 1015.8 - 0.0
16/06:00am 15.8 16.0 14.8 94 0.6 SSW 7 9 4 5 1015.3 1015.2 0.0
16/05:30am 15.7 16.0 14.6 93 0.6 SSW 6 7 3 4 1015.0 - 0.0
16/05:00am 16.1 16.6 15.0 93 0.6 SSW 6 7 3 4 1014.9 - 0.0
16/04:30am 16.3 16.7 15.2 93 0.6 SSW 7 9 4 5 1014.7 - 0.0
16/04:00am 16.4 17.0 15.3 93 0.6 SW 6 7 3 4 1014.6 - 0.0
16/03:30am 16.5 16.9 15.4 93 0.6 SW 7 9 4 5 1014.6 - 0.0
16/03:00am 16.7 17.1 15.4 92 0.8 WSW 7 9 4 5 1014.7 1014.6 0.0
16/02:30am 17.3 17.9 15.8 91 0.9 SW 7 9 4 5 1014.7 - 0.0
16/02:00am 17.6 18.3 16.1 91 0.9 SW 7 11 4 6 1014.7 - 0.0
16/01:30am 17.6 18.4 16.3 92 0.8 WSW 7 11 4 6 1015.1 - 0.0
16/01:00am 17.6 18.3 16.1 91 0.9 WSW 7 9 4 5 1015.3 - 0.0
16/12:30am 18.0 18.8 16.3 90 1.0 WSW 7 9 4 5 1015.5 - 0.0
16/12:00am 18.4 18.9 16.6 89 1.1 SW 9 13 5 7 1015.4 1015.3 0.0
 
Date/Time
EST
Temp
°C
App
Temp
°C
Dew
Point
Rel
Hum
%
Delta-T
°C
Wind Press
QNH
hPa
Press
MSL
hPa
Rain
since 9 am
mm
Dir
 
Spd
km/h
Gust
km/h
Spd
kts
Gust
kts
15/11:30pm 18.7 19.3 16.8 89 1.1 SW 9 11 5 6 1015.5 - 0.0
15/11:00pm 18.6 19.5 16.6 88 1.2 WSW 7 9 4 5 1015.4 - 0.0
15/10:30pm 19.6 20.7 16.6 83 1.8 S 6 7 3 4 1015.4 - 0.0
15/10:00pm 20.6 21.6 16.8 79 2.3 S 7 9 4 5 1015.5 - 0.0
15/09:30pm 20.9 21.2 16.9 78 2.4 S 11 15 6 8 1015.3 - 0.0
15/09:00pm 21.0 21.2 16.8 77 2.6 S 11 15 6 8 1015.3 1015.2 0.0
15/08:30pm 21.1 21.4 16.9 77 2.6 S 11 15 6 8 1015.2 - 0.0
15/08:00pm 21.4 22.1 17.0 76 2.7 SSE 9 13 5 7 1015.2 - 0.0
15/07:30pm 21.5 21.8 16.9 75 2.8 S 11 17 6 9 1015.1 - 0.0
15/07:00pm 21.9 21.5 17.1 74 2.9 S 15 24 8 13 1014.9 - 0.0
15/06:30pm 22.4 21.7 17.3 73 3.1 SSE 17 24 9 13 1014.5 - 0.0
15/06:00pm 22.5 22.1 17.2 72 3.3 SSE 15 28 8 15 1014.3 1014.2 0.0
15/05:30pm 22.6 21.8 16.2 67 3.9 SSE 15 28 8 15 1013.8 - 0.0
15/05:00pm 23.2 21.9 16.7 67 4.0 SSE 19 33 10 18 1013.6 - 0.0
15/04:30pm 24.0 22.6 17.0 65 4.3 SSE 20 33 11 18 1013.3 - 0.0
15/04:00pm 24.2 23.0 17.0 64 4.4 SSE 19 35 10 19 1013.0 - 0.0
15/03:30pm 24.8 23.0 16.0 58 5.4 SSE 20 33 11 18 1013.0 - 0.0
15/03:00pm 24.7 22.8 16.7 61 4.9 SSE 22 35 12 19 1012.8 1012.7 0.0
15/02:30pm 24.8 23.1 17.3 63 4.7 SSE 22 37 12 20 1012.8 - 0.0
15/02:00pm 25.6 23.9 17.3 60 5.2 S 22 33 12 18 1012.8 - 0.0
15/01:30pm 24.8 22.4 17.3 63 4.7 SSE 26 39 14 21 1012.8 - 0.0
15/01:00pm 25.3 23.8 17.7 62 4.8 SSE 22 35 12 19 1013.1 - 0.0
15/12:30pm 25.3 24.0 17.2 61 5.0 SSE 20 37 11 20 1013.2 - 0.0
15/12:00pm 25.4 22.8 16.8 59 5.3 SSE 26 39 14 21 1013.5 1013.4 0.0
15/11:30am 26.2 25.4 18.1 61 5.1 SSE 19 33 10 18 1013.8 - 0.0
15/11:00am 25.4 24.5 18.1 64 4.6 S 20 37 11 20 1014.4 - 0.0
15/10:30am 24.6 22.9 18.1 67 4.1 S 24 35 13 19 1014.8 - 0.0
15/10:00am 23.7 21.6 17.2 67 4.0 S 24 35 13 19 1014.8 - 0.0
15/09:30am 23.5 21.5 17.5 69 3.7 S 24 39 13 21 1014.6 - 0.0
15/09:00am 23.1 21.1 17.3 70 3.6 S 24 37 13 20 1014.6 1014.5 4.4
15/08:30am 23.0 22.2 17.9 73 3.2 S 19 33 10 18 1014.5 - 4.4
15/08:00am 21.6 20.5 17.4 77 2.6 S 19 30 10 16 1014.4 - 4.4
15/07:30am 20.7 19.4 16.9 79 2.3 SSW 19 28 10 15 1014.5 - 4.4
15/07:00am 19.9 19.0 16.9 83 1.8 SSW 17 24 9 13 1014.1 - 4.4
15/06:30am 19.1 18.6 16.9 87 1.3 SSW 15 20 8 11 1014.0 - 4.4
15/06:00am 18.8 18.6 16.8 88 1.2 SW 13 17 7 9 1013.8 1013.7 4.4
15/05:30am 18.8 18.9 16.6 87 1.3 SW 11 15 6 8 1013.4 - 4.4
15/05:00am 19.2 19.0 16.8 86 1.4 SW 13 17 7 9 1012.9 - 4.4
15/04:30am 19.1 19.3 16.7 86 1.4 SW 11 15 6 8 1012.4 - 4.4
15/04:00am 19.4 19.6 16.8 85 1.6 SW 11 15 6 8 1012.1 - 4.4
15/03:30am 19.8 20.0 16.8 83 1.8 SSW 11 17 6 9 1012.0 - 4.4
15/03:00am 20.0 20.2 16.8 82 1.9 SW 11 15 6 8 1011.9 1011.8 4.4
15/02:30am 20.4 20.2 16.6 79 2.3 SW 13 17 7 9 1012.1 - 4.4
15/02:00am 22.3 21.1 16.1 68 3.7 S 17 26 9 14 1011.9 - 4.4
15/01:30am 22.7 21.0 16.3 67 3.9 S 20 30 11 16 1012.0 - 4.4
15/01:00am 22.6 21.2 16.6 69 3.7 S 19 33 10 18 1011.9 - 4.4
15/12:30am 22.8 21.4 16.6 68 3.8 S 19 33 10 18 1012.0 - 4.4
15/12:00am 22.8 20.9 16.8 69 3.7 S 22 39 12 21 1011.8 1011.7 4.4
 
Date/Time
EST
Temp
°C
App
Temp
°C
Dew
Point
Rel
Hum
%
Delta-T
°C
Wind Press
QNH
hPa
Press
MSL
hPa
Rain
since 9 am
mm
Dir
 
Spd
km/h
Gust
km/h
Spd
kts
Gust
kts
14/11:30pm 22.6 21.2 17.1 71 3.4 S 20 35 11 19 1011.6 - 4.4
14/11:00pm 22.8 20.1 16.6 68 3.8 S 26 43 14 23 1011.7 - 4.4
14/10:30pm 23.0 20.1 17.0 69 3.7 S 28 44 15 24 1011.6 - 4.4
14/10:00pm 22.8 20.8 17.3 71 3.4 S 24 37 13 20 1011.9 - 4.4
14/09:30pm 22.2 21.6 18.4 79 2.4 S 19 35 10 19 1012.3 - 4.4
14/09:00pm 21.8 20.7 18.6 82 2.0 S 22 39 12 21 1012.5 1012.4 4.4
14/08:30pm 21.7 22.6 18.5 82 2.0 S 11 19 6 10 1011.8 - 4.4
14/08:00pm 21.7 20.8 18.3 81 2.1 S 20 30 11 16 1011.4 - 4.4

Other Formats:

Comma delimited format used in spreadsheet applications
http://www.bom.gov.au/fwo/IDQ60801/IDQ60801.95565.axf

JavaScript Object Notation format (JSON) in row-major order
http://www.bom.gov.au/fwo/IDQ60801/IDQ60801.95565.json